sensor_id;sensor_type;location;lat;lon;timestamp;pressure;altitude;pressure_sealevel;temperature;humidity
65880;BME280;52661;51.364;6.054;2022-11-30T00:00:21;101880.13;;;6.82;100.00
65880;BME280;52661;51.364;6.054;2022-11-30T00:02:46;101880.94;;;6.82;100.00
65880;BME280;52661;51.364;6.054;2022-11-30T00:05:13;101884.06;;;6.84;100.00
65880;BME280;52661;51.364;6.054;2022-11-30T00:07:39;101879.94;;;6.87;100.00
65880;BME280;52661;51.364;6.054;2022-11-30T00:10:05;101879.59;;;6.88;100.00
65880;BME280;52661;51.364;6.054;2022-11-30T00:12:30;101878.00;;;6.87;100.00
65880;BME280;52661;51.364;6.054;2022-11-30T00:14:56;101886.78;;;6.84;100.00
65880;BME280;52661;51.364;6.054;2022-11-30T00:17:21;101877.56;;;6.85;100.00
65880;BME280;52661;51.364;6.054;2022-11-30T00:19:46;101877.69;;;6.89;100.00
65880;BME280;52661;51.364;6.054;2022-11-30T00:22:12;101873.41;;;6.88;100.00
65880;BME280;52661;51.364;6.054;2022-11-30T00:24:37;101874.97;;;6.89;100.00
65880;BME280;52661;51.364;6.054;2022-11-30T00:27:02;101876.44;;;6.86;100.00
65880;BME280;52661;51.364;6.054;2022-11-30T00:29:28;101878.34;;;6.86;100.00
65880;BME280;52661;51.364;6.054;2022-11-30T00:31:53;101883.28;;;6.84;100.00
65880;BME280;52661;51.364;6.054;2022-11-30T00:34:19;101879.47;;;6.85;100.00
65880;BME280;52661;51.364;6.054;2022-11-30T00:36:44;101871.72;;;6.83;100.00
65880;BME280;52661;51.364;6.054;2022-11-30T00:39:09;101870.81;;;6.79;100.00
65880;BME280;52661;51.364;6.054;2022-11-30T00:41:35;101870.47;;;6.81;100.00
65880;BME280;52661;51.364;6.054;2022-11-30T00:44:00;101872.84;;;6.82;100.00
65880;BME280;52661;51.364;6.054;2022-11-30T00:46:25;101875.53;;;6.82;100.00
65880;BME280;52661;51.364;6.054;2022-11-30T00:48:51;101874.06;;;6.85;100.00
65880;BME280;52661;51.364;6.054;2022-11-30T00:51:16;101871.84;;;6.87;100.00
65880;BME280;52661;51.364;6.054;2022-11-30T00:53:43;101868.00;;;6.88;100.00
65880;BME280;52661;51.364;6.054;2022-11-30T00:56:09;101879.94;;;6.87;100.00
65880;BME280;52661;51.364;6.054;2022-11-30T00:58:35;101880.38;;;6.89;100.00
65880;BME280;52661;51.364;6.054;2022-11-30T01:01:00;101879.94;;;6.87;100.00
65880;BME280;52661;51.364;6.054;2022-11-30T01:03:26;101883.41;;;6.87;100.00
65880;BME280;52661;51.364;6.054;2022-11-30T01:05:51;101883.41;;;6.87;100.00
65880;BME280;52661;51.364;6.054;2022-11-30T01:08:17;101884.88;;;6.85;100.00
65880;BME280;52661;51.364;6.054;2022-11-30T01:10:42;101891.84;;;6.86;100.00
65880;BME280;52661;51.364;6.054;2022-11-30T01:13:10;101894.53;;;6.86;100.00
65880;BME280;52661;51.364;6.054;2022-11-30T01:15:38;101898.84;;;6.87;100.00
65880;BME280;52661;51.364;6.054;2022-11-30T01:18:04;101906.94;;;6.87;100.00
65880;BME280;52661;51.364;6.054;2022-11-30T01:20:29;101901.84;;;6.85;100.00
65880;BME280;52661;51.364;6.054;2022-11-30T01:22:55;101900.72;;;6.86;100.00
65880;BME280;52661;51.364;6.054;2022-11-30T01:25:20;101905.78;;;6.88;100.00
65880;BME280;52661;51.364;6.054;2022-11-30T01:27:49;101901.84;;;6.85;100.00
65880;BME280;52661;51.364;6.054;2022-11-30T01:30:14;101903.44;;;6.86;100.00
65880;BME280;52661;51.364;6.054;2022-11-30T01:32:39;101904.22;;;6.87;100.00
65880;BME280;52661;51.364;6.054;2022-11-30T01:35:05;101906.94;;;6.87;100.00
65880;BME280;52661;51.364;6.054;2022-11-30T01:37:31;101901.19;;;6.88;100.00
65880;BME280;52661;51.364;6.054;2022-11-30T01:39:56;101904.66;;;6.89;100.00
65880;BME280;52661;51.364;6.054;2022-11-30T01:42:21;101893.44;;;6.87;100.00
65880;BME280;52661;51.364;6.054;2022-11-30T01:44:58;101900.06;;;6.89;100.00
65880;BME280;52661;51.364;6.054;2022-11-30T01:47:56;101897.38;;;6.89;100.00
65880;BME280;52661;51.364;6.054;2022-11-30T01:50:26;101902.75;;;6.89;100.00
65880;BME280;52661;51.364;6.054;2022-11-30T01:52:55;101905.78;;;6.88;100.00
65880;BME280;52661;51.364;6.054;2022-11-30T01:55:27;101895.00;;;6.88;100.00
65880;BME280;52661;51.364;6.054;2022-11-30T01:57:57;101901.19;;;6.88;100.00
65880;BME280;52661;51.364;6.054;2022-11-30T02:00:23;101904.34;;;6.90;100.00
65880;BME280;52661;51.364;6.054;2022-11-30T02:02:53;101910.50;;;6.91;100.00
65880;BME280;52661;51.364;6.054;2022-11-30T02:05:20;101911.78;;;6.93;100.00
65880;BME280;52661;51.364;6.054;2022-11-30T02:07:45;101908.28;;;6.93;100.00
65880;BME280;52661;51.364;6.054;2022-11-30T02:10:16;101910.50;;;6.91;100.00
65880;BME280;52661;51.364;6.054;2022-11-30T02:15:56;101928.28;;;6.92;100.00
65880;BME280;52661;51.364;6.054;2022-11-30T02:18:31;101915.47;;;6.89;100.00
65880;BME280;52661;51.364;6.054;2022-11-30T02:21:13;101912.75;;;6.89;100.00
65880;BME280;52661;51.364;6.054;2022-11-30T02:26:23;101915.78;;;6.87;100.00
65880;BME280;52661;51.364;6.054;2022-11-30T02:29:13;101921.84;;;6.84;100.00
65880;BME280;52661;51.364;6.054;2022-11-30T02:32:16;101913.63;;;6.81;100.00
65880;BME280;52661;51.364;6.054;2022-11-30T02:34:45;101920.50;;;6.78;100.00
65880;BME280;52661;51.364;6.054;2022-11-30T02:37:12;101925.78;;;6.75;100.00
65880;BME280;52661;51.364;6.054;2022-11-30T02:39:37;101921.97;;;6.76;100.00
65880;BME280;52661;51.364;6.054;2022-11-30T02:42:08;101925.44;;;6.76;100.00
65880;BME280;52661;51.364;6.054;2022-11-30T02:44:35;101923.19;;;6.78;100.00
65880;BME280;52661;51.364;6.054;2022-11-30T02:47:08;101924.66;;;6.76;100.00
65880;BME280;52661;51.364;6.054;2022-11-30T02:49:40;101923.63;;;6.68;100.00
65880;BME280;52661;51.364;6.054;2022-11-30T02:52:09;101924.16;;;6.62;100.00
65880;BME280;52661;51.364;6.054;2022-11-30T02:54:35;101915.72;;;6.63;100.00
65880;BME280;52661;51.364;6.054;2022-11-30T02:57:01;101919.22;;;6.64;100.00
65880;BME280;52661;51.364;6.054;2022-11-30T02:59:26;101920.31;;;6.63;100.00
65880;BME280;52661;51.364;6.054;2022-11-30T03:01:52;101923.81;;;6.63;100.00
65880;BME280;52661;51.364;6.054;2022-11-30T03:04:17;101919.88;;;6.61;100.00
65880;BME280;52661;51.364;6.054;2022-11-30T03:06:42;101926.38;;;6.60;100.00
65880;BME280;52661;51.364;6.054;2022-11-30T03:09:08;101930.19;;;6.59;100.00
65880;BME280;52661;51.364;6.054;2022-11-30T03:11:33;101924.81;;;6.59;100.00
65880;BME280;52661;51.364;6.054;2022-11-30T03:13:58;101924.81;;;6.59;100.00
65880;BME280;52661;51.364;6.054;2022-11-30T03:16:24;101928.63;;;6.58;100.00
65880;BME280;52661;51.364;6.054;2022-11-30T03:18:49;101931.34;;;6.58;100.00
65880;BME280;52661;51.364;6.054;2022-11-30T03:21:14;101926.25;;;6.56;100.00
65880;BME280;52661;51.364;6.054;2022-11-30T03:23:40;101926.25;;;6.56;100.00
65880;BME280;52661;51.364;6.054;2022-11-30T03:26:07;101926.63;;;6.55;100.00
65880;BME280;52661;51.364;6.054;2022-11-30T03:28:33;101929.31;;;6.55;100.00
65880;BME280;52661;51.364;6.054;2022-11-30T03:30:59;101928.16;;;6.56;100.00
65880;BME280;52661;51.364;6.054;2022-11-30T03:33:24;101925.47;;;6.56;100.00
65880;BME280;52661;51.364;6.054;2022-11-30T03:36:00;101929.75;;;6.57;100.00
65880;BME280;52661;51.364;6.054;2022-11-30T03:38:27;101927.84;;;6.57;100.00
65880;BME280;52661;51.364;6.054;2022-11-30T03:41:04;101933.13;;;6.54;100.00
65880;BME280;52661;51.364;6.054;2022-11-30T03:43:30;101929.63;;;6.53;100.00
65880;BME280;52661;51.364;6.054;2022-11-30T03:45:55;101930.72;;;6.52;100.00
65880;BME280;52661;51.364;6.054;2022-11-30T03:48:21;101938.16;;;6.55;100.00
65880;BME280;52661;51.364;6.054;2022-11-30T03:50:47;101936.94;;;6.53;100.00
65880;BME280;52661;51.364;6.054;2022-11-30T03:53:16;101938.50;;;6.54;100.00
65880;BME280;52661;51.364;6.054;2022-11-30T03:55:41;101933.00;;;6.50;100.00
65880;BME280;52661;51.364;6.054;2022-11-30T03:58:07;101930.72;;;6.52;100.00
65880;BME280;52661;51.364;6.054;2022-11-30T04:00:32;101928.38;;;6.51;100.00
65880;BME280;52661;51.364;6.054;2022-11-30T04:02:57;101931.53;;;6.53;100.00
65880;BME280;52661;51.364;6.054;2022-11-30T04:05:23;101931.28;;;6.46;100.00
65880;BME280;52661;51.364;6.054;2022-11-30T04:07:48;101928.25;;;6.47;100.00
65880;BME280;52661;51.364;6.054;2022-11-30T04:10:13;101929.03;;;6.48;100.00
65880;BME280;52661;51.364;6.054;2022-11-30T04:12:38;101925.88;;;6.46;100.00
65880;BME280;52661;51.364;6.054;2022-11-30T04:15:04;101929.38;;;6.46;100.00
65880;BME280;52661;51.364;6.054;2022-11-30T04:17:29;101932.88;;;6.47;100.00
65880;BME280;52661;51.364;6.054;2022-11-30T04:19:55;101928.13;;;6.43;100.00
65880;BME280;52661;51.364;6.054;2022-11-30T04:22:20;101936.22;;;6.43;100.00
65880;BME280;52661;51.364;6.054;2022-11-30T04:24:45;101934.63;;;6.42;100.00
65880;BME280;52661;51.364;6.054;2022-11-30T04:27:11;101934.28;;;6.44;100.00
65880;BME280;52661;51.364;6.054;2022-11-30T04:29:36;101930.03;;;6.43;100.00
65880;BME280;52661;51.364;6.054;2022-11-30T04:32:01;101939.81;;;6.48;100.00
65880;BME280;52661;51.364;6.054;2022-11-30T04:34:26;101937.00;;;6.44;100.00
65880;BME280;52661;51.364;6.054;2022-11-30T04:36:52;101947.00;;;6.43;100.00
65880;BME280;52661;51.364;6.054;2022-11-30T04:39:18;101934.97;;;6.41;100.00
65880;BME280;52661;51.364;6.054;2022-11-30T04:41:43;101947.66;;;6.40;100.00
65880;BME280;52661;51.364;6.054;2022-11-30T04:44:08;101942.25;;;6.40;100.00
65880;BME280;52661;51.364;6.054;2022-11-30T04:46:35;101948.78;;;6.39;100.00
65880;BME280;52661;51.364;6.054;2022-11-30T04:49:00;101946.09;;;6.39;100.00
65880;BME280;52661;51.364;6.054;2022-11-30T04:51:26;101954.19;;;6.39;100.00
65880;BME280;52661;51.364;6.054;2022-11-30T04:53:51;101950.03;;;6.42;100.00
65880;BME280;52661;51.364;6.054;2022-11-30T04:56:17;101949.44;;;6.36;100.00
65880;BME280;52661;51.364;6.054;2022-11-30T04:58:42;101953.25;;;6.35;100.00
65880;BME280;52661;51.364;6.054;2022-11-30T05:01:07;101953.38;;;6.39;100.00
65880;BME280;52661;51.364;6.054;2022-11-30T05:03:33;101949.56;;;6.40;100.00
65880;BME280;52661;51.364;6.054;2022-11-30T05:05:59;101951.13;;;6.41;100.00
65880;BME280;52661;51.364;6.054;2022-11-30T05:08:24;101953.84;;;6.41;100.00
65880;BME280;52661;51.364;6.054;2022-11-30T05:10:53;101956.41;;;6.37;100.00
65880;BME280;52661;51.364;6.054;2022-11-30T05:13:20;101957.97;;;6.38;100.00
65880;BME280;52661;51.364;6.054;2022-11-30T05:15:45;101959.88;;;6.38;100.00
65880;BME280;52661;51.364;6.054;2022-11-30T05:18:11;101958.31;;;6.37;100.00
65880;BME280;52661;51.364;6.054;2022-11-30T05:20:36;101961.00;;;6.37;100.00
65880;BME280;52661;51.364;6.054;2022-11-30T05:23:01;101961.34;;;6.35;100.00
65880;BME280;52661;51.364;6.054;2022-11-30T05:25:27;101969.31;;;6.32;100.00
65880;BME280;52661;51.364;6.054;2022-11-30T05:27:52;101968.66;;;6.35;100.00
65880;BME280;52661;51.364;6.054;2022-11-30T05:30:18;101972.13;;;6.35;100.00
65880;BME280;52661;51.364;6.054;2022-11-30T05:32:43;101971.03;;;6.36;100.00
65880;BME280;52661;51.364;6.054;2022-11-30T05:35:08;101968.50;;;6.31;100.00
65880;BME280;52661;51.364;6.054;2022-11-30T05:37:34;101972.31;;;6.30;100.00
65880;BME280;52661;51.364;6.054;2022-11-30T05:39:59;101974.44;;;6.25;100.00
65880;BME280;52661;51.364;6.054;2022-11-30T05:42:24;101976.13;;;6.29;100.00
65880;BME280;52661;51.364;6.054;2022-11-30T05:44:50;101973.63;;;6.24;100.00
65880;BME280;52661;51.364;6.054;2022-11-30T05:47:16;101977.31;;;6.20;100.00
65880;BME280;52661;51.364;6.054;2022-11-30T05:49:41;101978.56;;;6.22;100.00
65880;BME280;52661;51.364;6.054;2022-11-30T05:52:07;101972.41;;;6.22;100.00
65880;BME280;52661;51.364;6.054;2022-11-30T05:54:33;101972.84;;;6.24;100.00
65880;BME280;52661;51.364;6.054;2022-11-30T05:56:58;101976.50;;;6.19;100.00
65880;BME280;52661;51.364;6.054;2022-11-30T05:59:23;101976.72;;;6.14;100.00
65880;BME280;52661;51.364;6.054;2022-11-30T06:01:52;101974.69;;;6.11;100.00
65880;BME280;52661;51.364;6.054;2022-11-30T06:04:17;101979.59;;;6.09;100.00
65880;BME280;52661;51.364;6.054;2022-11-30T06:06:43;101983.88;;;6.10;100.00
65880;BME280;52661;51.364;6.054;2022-11-30T06:09:08;101990.38;;;6.09;100.00
65880;BME280;52661;51.364;6.054;2022-11-30T06:11:33;101995.81;;;6.01;100.00
65880;BME280;52661;51.364;6.054;2022-11-30T06:13:59;101983.34;;;5.96;100.00
65880;BME280;52661;51.364;6.054;2022-11-30T06:16:24;101993.47;;;5.99;100.00
65880;BME280;52661;51.364;6.054;2022-11-30T06:18:49;101987.44;;;5.93;100.00
65880;BME280;52661;51.364;6.054;2022-11-30T06:21:15;101982.28;;;5.88;100.00
65880;BME280;52661;51.364;6.054;2022-11-30T06:23:40;101985.09;;;5.83;100.00
65880;BME280;52661;51.364;6.054;2022-11-30T06:26:08;101988.00;;;5.78;100.00
65880;BME280;52661;51.364;6.054;2022-11-30T06:28:34;101986.41;;;5.77;100.00
65880;BME280;52661;51.364;6.054;2022-11-30T06:31:00;101989.41;;;5.76;100.00
65880;BME280;52661;51.364;6.054;2022-11-30T06:33:26;101984.03;;;5.76;100.00
65880;BME280;52661;51.364;6.054;2022-11-30T06:35:51;101984.38;;;5.74;100.00
65880;BME280;52661;51.364;6.054;2022-11-30T06:38:17;101994.16;;;5.79;100.00
65880;BME280;52661;51.364;6.054;2022-11-30T06:40:42;101988.16;;;5.82;100.00
65880;BME280;52661;51.364;6.054;2022-11-30T06:43:07;101985.63;;;5.77;100.00
65880;BME280;52661;51.364;6.054;2022-11-30T06:45:33;101992.59;;;5.78;100.00
65880;BME280;52661;51.364;6.054;2022-11-30T06:47:58;101995.31;;;5.69;100.00
65880;BME280;52661;51.364;6.054;2022-11-30T06:50:23;101993.41;;;5.70;100.00
65880;BME280;52661;51.364;6.054;2022-11-30T06:52:49;101993.78;;;5.60;100.00
65880;BME280;52661;51.364;6.054;2022-11-30T06:55:14;101987.91;;;5.58;100.00
65880;BME280;52661;51.364;6.054;2022-11-30T06:57:39;101997.91;;;5.57;100.00
65880;BME280;52661;51.364;6.054;2022-11-30T07:00:05;102002.38;;;5.53;100.00
65880;BME280;52661;51.364;6.054;2022-11-30T07:02:32;102002.22;;;5.50;100.00
65880;BME280;52661;51.364;6.054;2022-11-30T07:04:57;102002.09;;;5.46;100.00
65880;BME280;52661;51.364;6.054;2022-11-30T07:07:22;102004.28;;;5.44;100.00
65880;BME280;52661;51.364;6.054;2022-11-30T07:09:48;102002.69;;;5.43;100.00
65880;BME280;52661;51.364;6.054;2022-11-30T07:12:14;102008.09;;;5.43;100.00
65880;BME280;52661;51.364;6.054;2022-11-30T07:14:40;102012.53;;;5.39;100.00
65880;BME280;52661;51.364;6.054;2022-11-30T07:17:05;102014.91;;;5.40;100.00
65880;BME280;52661;51.364;6.054;2022-11-30T07:19:31;102019.50;;;5.49;100.00
65880;BME280;52661;51.364;6.054;2022-11-30T07:21:58;102019.66;;;5.43;100.00
65880;BME280;52661;51.364;6.054;2022-11-30T07:24:23;102017.44;;;5.45;100.00
65880;BME280;52661;51.364;6.054;2022-11-30T07:27:07;102023.47;;;5.42;100.00
65880;BME280;52661;51.364;6.054;2022-11-30T07:29:32;102029.63;;;5.52;100.00
65880;BME280;52661;51.364;6.054;2022-11-30T07:31:58;102032.16;;;5.48;100.00
65880;BME280;52661;51.364;6.054;2022-11-30T07:34:23;102039.78;;;5.46;100.00
65880;BME280;52661;51.364;6.054;2022-11-30T07:36:48;102041.34;;;5.47;100.00
65880;BME280;52661;51.364;6.054;2022-11-30T07:39:14;102038.34;;;5.40;100.00
65880;BME280;52661;51.364;6.054;2022-11-30T07:41:40;102038.34;;;5.40;100.00
65880;BME280;52661;51.364;6.054;2022-11-30T07:44:07;102045.34;;;5.32;100.00
65880;BME280;52661;51.364;6.054;2022-11-30T07:46:33;102053.91;;;5.26;100.00
65880;BME280;52661;51.364;6.054;2022-11-30T07:49:00;102053.75;;;5.22;100.00
65880;BME280;52661;51.364;6.054;2022-11-30T07:51:26;102057.09;;;5.19;100.00
65880;BME280;52661;51.364;6.054;2022-11-30T07:53:54;102051.84;;;5.14;100.00
65880;BME280;52661;51.364;6.054;2022-11-30T07:56:20;102056.63;;;5.17;100.00
65880;BME280;52661;51.364;6.054;2022-11-30T07:58:46;102056.44;;;5.22;100.00
65880;BME280;52661;51.364;6.054;2022-11-30T08:01:17;102061.38;;;5.20;100.00
65880;BME280;52661;51.364;6.054;2022-11-30T08:03:43;102072.59;;;5.14;100.00
65880;BME280;52661;51.364;6.054;2022-11-30T08:06:11;102070.22;;;5.29;100.00
65880;BME280;52661;51.364;6.054;2022-11-30T08:08:38;102079.88;;;5.30;100.00
65880;BME280;52661;51.364;6.054;2022-11-30T08:11:06;102079.06;;;5.30;100.00
65880;BME280;52661;51.364;6.054;2022-11-30T08:13:32;102071.94;;;5.25;100.00
65880;BME280;52661;51.364;6.054;2022-11-30T08:16:08;102077.66;;;5.15;100.00
65880;BME280;52661;51.364;6.054;2022-11-30T08:18:34;102088.13;;;5.08;100.00
65880;BME280;52661;51.364;6.054;2022-11-30T08:21:02;102088.28;;;5.03;100.00
65880;BME280;52661;51.364;6.054;2022-11-30T08:23:34;102088.59;;;5.02;100.00
65880;BME280;52661;51.364;6.054;2022-11-30T08:26:14;102093.66;;;4.94;100.00
65880;BME280;52661;51.364;6.054;2022-11-30T08:28:41;102098.09;;;4.90;100.00
65880;BME280;52661;51.364;6.054;2022-11-30T08:31:16;102087.19;;;4.95;100.00
65880;BME280;52661;51.364;6.054;2022-11-30T08:33:42;102093.81;;;4.98;100.00
65880;BME280;52661;51.364;6.054;2022-11-30T08:36:13;102104.44;;;4.94;100.00
65880;BME280;52661;51.364;6.054;2022-11-30T08:38:39;102105.22;;;4.95;100.00
65880;BME280;52661;51.364;6.054;2022-11-30T08:41:06;102098.72;;;5.05;100.00
65880;BME280;52661;51.364;6.054;2022-11-30T08:43:32;102101.09;;;5.15;100.00
65880;BME280;52661;51.364;6.054;2022-11-30T08:45:58;102103.94;;;5.18;100.00
65880;BME280;52661;51.364;6.054;2022-11-30T08:48:25;102103.47;;;5.25;100.00
65880;BME280;52661;51.364;6.054;2022-11-30T08:50:50;102107.75;;;5.34;100.00
65880;BME280;52661;51.364;6.054;2022-11-30T08:53:16;102110.56;;;5.46;100.00
65880;BME280;52661;51.364;6.054;2022-11-30T08:55:41;102113.59;;;5.45;100.00
65880;BME280;52661;51.364;6.054;2022-11-30T08:58:06;102107.72;;;5.52;100.00
65880;BME280;52661;51.364;6.054;2022-11-30T09:00:32;102116.72;;;5.56;100.00
65880;BME280;52661;51.364;6.054;2022-11-30T09:02:57;102112.59;;;5.58;100.00
65880;BME280;52661;51.364;6.054;2022-11-30T09:05:22;102109.59;;;5.60;100.00
65880;BME280;52661;51.364;6.054;2022-11-30T09:07:48;102111.50;;;5.59;100.00
65880;BME280;52661;51.364;6.054;2022-11-30T09:10:13;102109.59;;;5.60;100.00
65880;BME280;52661;51.364;6.054;2022-11-30T09:12:39;102107.66;;;5.69;100.00
65880;BME280;52661;51.364;6.054;2022-11-30T09:15:07;102110.34;;;5.69;100.00
65880;BME280;52661;51.364;6.054;2022-11-30T09:17:33;102117.03;;;5.71;100.00
65880;BME280;52661;51.364;6.054;2022-11-30T09:19:59;102113.69;;;5.74;100.00
65880;BME280;52661;51.364;6.054;2022-11-30T09:22:25;102116.81;;;5.85;100.00
65880;BME280;52661;51.364;6.054;2022-11-30T09:24:51;102114.59;;;5.87;100.00
65880;BME280;52661;51.364;6.054;2022-11-30T09:27:16;102117.13;;;5.92;100.00
65880;BME280;52661;51.364;6.054;2022-11-30T09:29:42;102110.66;;;5.93;100.00
65880;BME280;52661;51.364;6.054;2022-11-30T09:32:07;102116.31;;;6.00;100.00
65880;BME280;52661;51.364;6.054;2022-11-30T09:34:32;102112.31;;;6.06;100.00
65880;BME280;52661;51.364;6.054;2022-11-30T09:36:58;102113.72;;;6.12;100.00
65880;BME280;52661;51.364;6.054;2022-11-30T09:39:23;102113.88;;;6.16;100.00
65880;BME280;52661;51.364;6.054;2022-11-30T09:50:04;102119.44;;;6.11;100.00
65880;BME280;52661;51.364;6.054;2022-11-30T09:52:36;102112.47;;;6.10;100.00
65880;BME280;52661;51.364;6.054;2022-11-30T09:55:07;102126.25;;;6.08;100.00
65880;BME280;52661;51.364;6.054;2022-11-30T09:57:44;102122.16;;;6.11;100.00
65880;BME280;52661;51.364;6.054;2022-11-30T10:00:18;102114.50;;;6.13;100.00
65880;BME280;52661;51.364;6.054;2022-11-30T10:02:47;102117.84;;;6.18;100.00
65880;BME280;52661;51.364;6.054;2022-11-30T10:05:16;102117.97;;;6.22;100.00
65880;BME280;52661;51.364;6.054;2022-11-30T10:10:40;102106.72;;;6.20;100.00
65880;BME280;52661;51.364;6.054;2022-11-30T10:13:53;102104.00;;;6.20;100.00
65880;BME280;52661;51.364;6.054;2022-11-30T10:17:25;102109.53;;;6.23;100.00
65880;BME280;52661;51.364;6.054;2022-11-30T10:19:44;102103.50;;;6.26;100.00
65880;BME280;52661;51.364;6.054;2022-11-30T10:22:37;102097.78;;;6.28;100.00
65880;BME280;52661;51.364;6.054;2022-11-30T10:27:48;102096.34;;;6.30;100.00
65880;BME280;52661;51.364;6.054;2022-11-30T10:30:17;102098.53;;;6.37;100.00
65880;BME280;52661;51.364;6.054;2022-11-30T10:32:45;102093.75;;;6.42;100.00
65880;BME280;52661;51.364;6.054;2022-11-30T10:35:28;102097.25;;;6.43;100.00
65880;BME280;52661;51.364;6.054;2022-11-30T10:37:59;102089.81;;;6.40;100.00
65880;BME280;52661;51.364;6.054;2022-11-30T10:40:36;102096.44;;;6.42;100.00
65880;BME280;52661;51.364;6.054;2022-11-30T10:43:13;102091.38;;;6.41;100.00
65880;BME280;52661;51.364;6.054;2022-11-30T10:45:46;102089.16;;;6.43;100.00
65880;BME280;52661;51.364;6.054;2022-11-30T10:50:46;102085.28;;;6.53;100.00
65880;BME280;52661;51.364;6.054;2022-11-30T10:53:12;102083.81;;;6.55;100.00
65880;BME280;52661;51.364;6.054;2022-11-30T10:55:51;102082.53;;;6.61;100.00
65880;BME280;52661;51.364;6.054;2022-11-30T11:01:09;102074.44;;;6.61;100.00
65880;BME280;52661;51.364;6.054;2022-11-30T11:03:35;102081.53;;;6.66;100.00
65880;BME280;52661;51.364;6.054;2022-11-30T11:06:14;102079.31;;;6.68;100.00
65880;BME280;52661;51.364;6.054;2022-11-30T11:08:41;102070.09;;;6.69;100.00
65880;BME280;52661;51.364;6.054;2022-11-30T11:11:30;102073.56;;;6.69;100.00
65880;BME280;52661;51.364;6.054;2022-11-30T11:14:21;102080.22;;;6.72;100.00
65880;BME280;52661;51.364;6.054;2022-11-30T11:17:03;102094.69;;;6.67;100.00
65880;BME280;52661;51.364;6.054;2022-11-30T11:19:32;102084.69;;;6.68;100.00
65880;BME280;52661;51.364;6.054;2022-11-30T11:22:00;102085.22;;;6.61;100.00
65880;BME280;52661;51.364;6.054;2022-11-30T11:24:26;102093.84;;;6.55;100.00
65880;BME280;52661;51.364;6.054;2022-11-30T11:26:53;102087.78;;;6.58;100.00
65880;BME280;52661;51.364;6.054;2022-11-30T11:29:26;102094.44;;;6.60;100.00
65880;BME280;52661;51.364;6.054;2022-11-30T11:32:12;102097.13;;;6.60;100.00
65880;BME280;52661;51.364;6.054;2022-11-30T11:34:40;102092.19;;;6.62;100.00
65880;BME280;52661;51.364;6.054;2022-11-30T11:39:54;102086.59;;;6.67;100.00
65880;BME280;52661;51.364;6.054;2022-11-30T11:42:20;102096.03;;;6.61;100.00
65880;BME280;52661;51.364;6.054;2022-11-30T11:44:49;102090.22;;;6.71;100.00
65880;BME280;52661;51.364;6.054;2022-11-30T11:47:25;102094.16;;;6.94;100.00
65880;BME280;52661;51.364;6.054;2022-11-30T11:49:51;102099.56;;;6.94;100.00
65880;BME280;52661;51.364;6.054;2022-11-30T11:52:27;102098.28;;;7.13;100.00
65880;BME280;52661;51.364;6.054;2022-11-30T11:54:58;102096.41;;;7.13;100.00
65880;BME280;52661;51.364;6.054;2022-11-30T11:57:46;102087.72;;;7.08;100.00
65880;BME280;52661;51.364;6.054;2022-11-30T12:00:18;102083.53;;;6.98;100.00
65880;BME280;52661;51.364;6.054;2022-11-30T12:05:17;102086.69;;;6.79;100.00
65880;BME280;52661;51.364;6.054;2022-11-30T12:08:37;102088.91;;;6.98;100.00
65880;BME280;52661;51.364;6.054;2022-11-30T12:11:15;102089.56;;;6.95;100.00
65880;BME280;52661;51.364;6.054;2022-11-30T12:13:44;102086.59;;;6.88;100.00
65880;BME280;52661;51.364;6.054;2022-11-30T12:16:25;102084.44;;;6.81;100.00
65880;BME280;52661;51.364;6.054;2022-11-30T12:26:54;102089.81;;;7.02;100.00
65880;BME280;52661;51.364;6.054;2022-11-30T12:29:25;102092.06;;;7.00;100.00
65880;BME280;52661;51.364;6.054;2022-11-30T12:45:34;102091.09;;;7.05;100.00
65880;BME280;52661;51.364;6.054;2022-11-30T12:48:09;102091.75;;;7.02;100.00
65880;BME280;52661;51.364;6.054;2022-11-30T12:53:19;102098.94;;;6.98;100.00
65880;BME280;52661;51.364;6.054;2022-11-30T12:56:16;102092.13;;;6.91;100.00
65880;BME280;52661;51.364;6.054;2022-11-30T12:58:53;102097.66;;;6.95;100.00
65880;BME280;52661;51.364;6.054;2022-11-30T13:01:36;102101.03;;;6.92;100.00
65880;BME280;52661;51.364;6.054;2022-11-30T13:04:15;102106.41;;;6.92;100.00
65880;BME280;52661;51.364;6.054;2022-11-30T13:06:54;102104.38;;;6.89;100.00
65880;BME280;52661;51.364;6.054;2022-11-30T13:09:29;102096.47;;;6.84;100.00
65880;BME280;52661;51.364;6.054;2022-11-30T13:12:03;102097.59;;;6.83;100.00
65880;BME280;52661;51.364;6.054;2022-11-30T13:14:32;102101.09;;;6.83;100.00
65880;BME280;52661;51.364;6.054;2022-11-30T13:17:06;102090.56;;;6.90;100.00
65880;BME280;52661;51.364;6.054;2022-11-30T13:22:16;102094.97;;;6.95;100.00
65880;BME280;52661;51.364;6.054;2022-11-30T13:24:47;102100.69;;;6.93;100.00
65880;BME280;52661;51.364;6.054;2022-11-30T13:27:21;102097.91;;;7.02;100.00
65880;BME280;52661;51.364;6.054;2022-11-30T13:32:17;102100.09;;;7.09;100.00
65880;BME280;52661;51.364;6.054;2022-11-30T13:34:42;102103.38;;;7.14;100.00
65880;BME280;52661;51.364;6.054;2022-11-30T13:37:17;102096.25;;;7.10;100.00
65880;BME280;52661;51.364;6.054;2022-11-30T13:39:45;102095.47;;;7.09;100.00
65880;BME280;52661;51.364;6.054;2022-11-30T13:44:53;102097.91;;;7.02;100.00
65880;BME280;52661;51.364;6.054;2022-11-30T13:47:28;102094.44;;;7.02;100.00
65880;BME280;52661;51.364;6.054;2022-11-30T13:49:55;102100.97;;;7.01;100.00
65880;BME280;52661;51.364;6.054;2022-11-30T13:58:07;102102.25;;;6.94;100.00
65880;BME280;52661;51.364;6.054;2022-11-30T14:05:40;102098.31;;;6.92;100.00
65880;BME280;52661;51.364;6.054;2022-11-30T14:10:35;102097.78;;;6.99;100.00
65880;BME280;52661;51.364;6.054;2022-11-30T14:13:04;102108.59;;;6.99;100.00